sensor_id;sensor_type;location;lat;lon;timestamp;pressure;altitude;pressure_sealevel;temperature;humidity
70900;BME280;67902;52.154;5.430;2023-04-01T00:01:05;99143.50;;;9.48;98.72
70900;BME280;67902;52.154;5.430;2023-04-01T00:03:33;99140.50;;;9.50;98.57
70900;BME280;67902;52.154;5.430;2023-04-01T00:06:00;99138.91;;;9.49;98.28
70900;BME280;67902;52.154;5.430;2023-04-01T00:08:28;99144.31;;;9.49;99.06
70900;BME280;67902;52.154;5.430;2023-04-01T00:10:55;99144.31;;;9.49;98.49
70900;BME280;67902;52.154;5.430;2023-04-01T00:13:24;99142.69;;;9.48;98.93
70900;BME280;67902;52.154;5.430;2023-04-01T00:15:53;99142.69;;;9.48;98.66
70900;BME280;67902;52.154;5.430;2023-04-01T00:18:21;99148.06;;;9.48;98.61
70900;BME280;67902;52.154;5.430;2023-04-01T00:20:50;99155.88;;;9.49;98.56
70900;BME280;67902;52.154;5.430;2023-04-01T00:23:17;99147.25;;;9.47;98.88
70900;BME280;67902;52.154;5.430;2023-04-01T00:25:44;99158.88;;;9.48;99.09
70900;BME280;67902;52.154;5.430;2023-04-01T00:28:15;99152.66;;;9.47;99.06
70900;BME280;67902;52.154;5.430;2023-04-01T00:30:42;99153.47;;;9.48;98.93
70900;BME280;67902;52.154;5.430;2023-04-01T00:33:08;99158.88;;;9.48;98.40
70900;BME280;67902;52.154;5.430;2023-04-01T00:35:35;99158.38;;;9.46;98.61
70900;BME280;67902;52.154;5.430;2023-04-01T00:38:02;99159.44;;;9.45;99.33
70900;BME280;67902;52.154;5.430;2023-04-01T00:42:56;99163.22;;;9.44;98.35
70900;BME280;67902;52.154;5.430;2023-04-01T00:45:29;99152.69;;;9.42;99.10
70900;BME280;67902;52.154;5.430;2023-04-01T00:47:59;99153.78;;;9.41;99.23
70900;BME280;67902;52.154;5.430;2023-04-01T00:50:28;99157.56;;;9.40;98.50
70900;BME280;67902;52.154;5.430;2023-04-01T00:52:56;99161.34;;;9.39;98.27
70900;BME280;67902;52.154;5.430;2023-04-01T00:55:24;99167.56;;;9.40;98.23
70900;BME280;67902;52.154;5.430;2023-04-01T00:57:55;99162.16;;;9.40;99.18
70900;BME280;67902;52.154;5.430;2023-04-01T01:00:23;99162.16;;;9.40;98.17
70900;BME280;67902;52.154;5.430;2023-04-01T01:02:50;99172.97;;;9.40;98.00
70900;BME280;67902;52.154;5.430;2023-04-01T01:05:20;99177.56;;;9.39;97.70
70900;BME280;67902;52.154;5.430;2023-04-01T01:08:03;99172.41;;;9.38;98.37
70900;BME280;67902;52.154;5.430;2023-04-01T01:10:38;99177.81;;;9.38;98.04
70900;BME280;67902;52.154;5.430;2023-04-01T01:13:29;99168.13;;;9.37;98.00
70900;BME280;67902;52.154;5.430;2023-04-01T01:16:05;99173.53;;;9.37;97.76
70900;BME280;67902;52.154;5.430;2023-04-01T01:18:41;99181.88;;;9.35;97.78
70900;BME280;67902;52.154;5.430;2023-04-01T01:26:39;99180.56;;;9.32;98.56
70900;BME280;67902;52.154;5.430;2023-04-01T01:29:34;99180.84;;;9.31;97.95
70900;BME280;67902;52.154;5.430;2023-04-01T01:37:35;99176.25;;;9.26;98.31
70900;BME280;67902;52.154;5.430;2023-04-01T01:40:06;99183.81;;;9.24;98.47
70900;BME280;67902;52.154;5.430;2023-04-01T01:42:37;99179.50;;;9.23;98.04
70900;BME280;67902;52.154;5.430;2023-04-01T01:45:06;99177.91;;;9.22;98.29
70900;BME280;67902;52.154;5.430;2023-04-01T01:47:34;99188.44;;;9.19;98.23
70900;BME280;67902;52.154;5.430;2023-04-01T01:50:02;99187.09;;;9.16;98.05
70900;BME280;67902;52.154;5.430;2023-04-01T01:52:31;99190.34;;;9.13;98.10
70900;BME280;67902;52.154;5.430;2023-04-01T01:54:57;99184.41;;;9.11;98.31
70900;BME280;67902;52.154;5.430;2023-04-01T01:57:27;99187.13;;;9.11;98.64
70900;BME280;67902;52.154;5.430;2023-04-01T02:00:02;99189.28;;;9.09;98.71
70900;BME280;67902;52.154;5.430;2023-04-01T02:02:34;99187.66;;;9.08;98.01
70900;BME280;67902;52.154;5.430;2023-04-01T02:05:01;99184.44;;;9.06;98.96
70900;BME280;67902;52.154;5.430;2023-04-01T02:07:31;99192.81;;;9.05;98.35
70900;BME280;67902;52.154;5.430;2023-04-01T02:10:00;99189.06;;;9.01;98.87
70900;BME280;67902;52.154;5.430;2023-04-01T02:12:28;99203.88;;;8.98;98.46
70900;BME280;67902;52.154;5.430;2023-04-01T02:15:03;99206.03;;;8.96;98.81
70900;BME280;67902;52.154;5.430;2023-04-01T02:17:33;99205.22;;;8.96;98.85
70900;BME280;67902;52.154;5.430;2023-04-01T02:20:04;99199.31;;;8.94;98.66
70900;BME280;67902;52.154;5.430;2023-04-01T02:22:36;99200.38;;;8.93;98.30
70900;BME280;67902;52.154;5.430;2023-04-01T02:25:11;99197.69;;;8.93;98.84
70900;BME280;67902;52.154;5.430;2023-04-01T02:27:39;99203.88;;;8.93;98.48
70900;BME280;67902;52.154;5.430;2023-04-01T02:30:06;99199.84;;;8.91;99.02
70900;BME280;67902;52.154;5.430;2023-04-01T02:32:34;99210.41;;;8.92;99.26
70900;BME280;67902;52.154;5.430;2023-04-01T02:35:06;99205.25;;;8.91;98.48
70900;BME280;67902;52.154;5.430;2023-04-01T02:37:33;99217.41;;;8.88;98.86
70900;BME280;67902;52.154;5.430;2023-04-01T02:40:05;99208.50;;;8.88;98.87
70900;BME280;67902;52.154;5.430;2023-04-01T02:42:34;99212.28;;;8.87;98.48
70900;BME280;67902;52.154;5.430;2023-04-01T02:45:01;99206.91;;;8.87;99.01
70900;BME280;67902;52.154;5.430;2023-04-01T02:47:27;99204.44;;;8.85;99.08
70900;BME280;67902;52.154;5.430;2023-04-01T02:49:54;99215.25;;;8.85;99.27
70900;BME280;67902;52.154;5.430;2023-04-01T02:52:25;99214.44;;;8.85;98.57
70900;BME280;67902;52.154;5.430;2023-04-01T02:54:52;99213.66;;;8.84;98.97
70900;BME280;67902;52.154;5.430;2023-04-01T02:57:18;99218.50;;;8.82;99.47
70900;BME280;67902;52.154;5.430;2023-04-01T02:59:45;99219.84;;;8.85;98.89
70900;BME280;67902;52.154;5.430;2023-04-01T03:02:11;99218.75;;;8.86;98.88
70900;BME280;67902;52.154;5.430;2023-04-01T03:04:38;99217.94;;;8.85;98.83
70900;BME280;67902;52.154;5.430;2023-04-01T03:07:04;99224.44;;;8.84;99.13
70900;BME280;67902;52.154;5.430;2023-04-01T03:09:31;99226.31;;;8.84;99.08
70900;BME280;67902;52.154;5.430;2023-04-01T03:11:58;99229.03;;;8.84;98.72
70900;BME280;67902;52.154;5.430;2023-04-01T03:14:24;99228.22;;;8.83;99.20
70900;BME280;67902;52.154;5.430;2023-04-01T03:16:50;99233.59;;;8.83;99.22
70900;BME280;67902;52.154;5.430;2023-04-01T03:19:17;99228.22;;;8.83;98.75
70900;BME280;67902;52.154;5.430;2023-04-01T03:21:43;99230.63;;;8.85;99.11
70900;BME280;67902;52.154;5.430;2023-04-01T03:24:10;99235.25;;;8.84;98.79
70900;BME280;67902;52.154;5.430;2023-04-01T03:26:36;99236.84;;;8.85;98.96
70900;BME280;67902;52.154;5.430;2023-04-01T03:29:03;99243.06;;;8.86;98.75
70900;BME280;67902;52.154;5.430;2023-04-01T03:31:29;99249.25;;;8.86;98.82
70900;BME280;67902;52.154;5.430;2023-04-01T03:33:56;99253.03;;;8.85;99.66
70900;BME280;67902;52.154;5.430;2023-04-01T03:36:22;99253.84;;;8.86;99.00
70900;BME280;67902;52.154;5.430;2023-04-01T03:38:49;99255.47;;;8.87;99.16
70900;BME280;67902;52.154;5.430;2023-04-01T03:41:17;99260.59;;;8.88;99.40
70900;BME280;67902;52.154;5.430;2023-04-01T03:43:44;99250.59;;;8.89;99.71
70900;BME280;67902;52.154;5.430;2023-04-01T03:46:11;99254.13;;;8.89;99.24
70900;BME280;67902;52.154;5.430;2023-04-01T03:48:37;99275.44;;;8.91;99.17
70900;BME280;67902;52.154;5.430;2023-04-01T03:51:07;99272.72;;;8.91;99.35
70900;BME280;67902;52.154;5.430;2023-04-01T03:53:34;99274.09;;;8.88;99.25
70900;BME280;67902;52.154;5.430;2023-04-01T03:56:04;99274.09;;;8.88;99.62
70900;BME280;67902;52.154;5.430;2023-04-01T03:58:31;99275.72;;;8.89;99.37
70900;BME280;67902;52.154;5.430;2023-04-01T04:00:58;99284.34;;;8.91;98.83
70900;BME280;67902;52.154;5.430;2023-04-01T04:03:24;99278.94;;;8.91;99.62
70900;BME280;67902;52.154;5.430;2023-04-01T04:05:50;99282.47;;;8.92;99.51
70900;BME280;67902;52.154;5.430;2023-04-01T04:08:17;99279.47;;;8.93;99.00
70900;BME280;67902;52.154;5.430;2023-04-01T04:10:44;99289.72;;;8.96;99.63
70900;BME280;67902;52.154;5.430;2023-04-01T04:13:10;99295.13;;;8.96;98.69
70900;BME280;67902;52.154;5.430;2023-04-01T04:15:38;99291.63;;;8.96;99.01
70900;BME280;67902;52.154;5.430;2023-04-01T04:18:04;99303.22;;;8.96;99.64
70900;BME280;67902;52.154;5.430;2023-04-01T04:20:31;99301.88;;;8.99;99.21
70900;BME280;67902;52.154;5.430;2023-04-01T04:22:57;99302.69;;;8.99;98.80
70900;BME280;67902;52.154;5.430;2023-04-01T04:25:24;99309.72;;;9.00;99.47
70900;BME280;67902;52.154;5.430;2023-04-01T04:27:50;99312.13;;;9.02;99.00
70900;BME280;67902;52.154;5.430;2023-04-01T04:30:17;99314.59;;;9.03;98.90
70900;BME280;67902;52.154;5.430;2023-04-01T04:32:43;99313.47;;;9.04;99.70
70900;BME280;67902;52.154;5.430;2023-04-01T04:35:09;99323.22;;;9.05;99.82
70900;BME280;67902;52.154;5.430;2023-04-01T04:37:36;99320.22;;;9.07;99.20
70900;BME280;67902;52.154;5.430;2023-04-01T04:40:03;99323.50;;;9.09;99.26
70900;BME280;67902;52.154;5.430;2023-04-01T04:42:29;99331.31;;;9.10;99.67
70900;BME280;67902;52.154;5.430;2023-04-01T04:44:56;99337.50;;;9.11;99.13
70900;BME280;67902;52.154;5.430;2023-04-01T04:47:22;99340.75;;;9.13;98.75
70900;BME280;67902;52.154;5.430;2023-04-01T04:49:49;99348.59;;;9.14;99.40
70900;BME280;67902;52.154;5.430;2023-04-01T04:52:15;99345.59;;;9.16;99.35
70900;BME280;67902;52.154;5.430;2023-04-01T04:54:42;99347.25;;;9.17;99.53
70900;BME280;67902;52.154;5.430;2023-04-01T04:57:08;99358.84;;;9.17;99.29
70900;BME280;67902;52.154;5.430;2023-04-01T04:59:35;99360.47;;;9.18;99.85
70900;BME280;67902;52.154;5.430;2023-04-01T05:02:01;99361.53;;;9.22;99.09
70900;BME280;67902;52.154;5.430;2023-04-01T05:04:28;99373.94;;;9.23;99.39
70900;BME280;67902;52.154;5.430;2023-04-01T05:06:54;99371.00;;;9.25;99.40
70900;BME280;67902;52.154;5.430;2023-04-01T05:09:21;99375.03;;;9.27;99.94
70900;BME280;67902;52.154;5.430;2023-04-01T05:11:47;99381.25;;;9.28;99.11
70900;BME280;67902;52.154;5.430;2023-04-01T05:14:15;99379.09;;;9.30;99.80
70900;BME280;67902;52.154;5.430;2023-04-01T05:16:42;99380.97;;;9.29;99.24
70900;BME280;67902;52.154;5.430;2023-04-01T05:19:08;99388.53;;;9.32;99.09
70900;BME280;67902;52.154;5.430;2023-04-01T05:21:35;99395.03;;;9.31;99.41
70900;BME280;67902;52.154;5.430;2023-04-01T05:24:01;99395.03;;;9.31;99.58
70900;BME280;67902;52.154;5.430;2023-04-01T05:26:28;99399.34;;;9.32;100.00
70900;BME280;67902;52.154;5.430;2023-04-01T05:28:54;99409.06;;;9.33;99.82
70900;BME280;67902;52.154;5.430;2023-04-01T05:31:21;99410.72;;;9.35;99.70
70900;BME280;67902;52.154;5.430;2023-04-01T05:33:47;99403.94;;;9.32;99.30
70900;BME280;67902;52.154;5.430;2023-04-01T05:36:15;99416.13;;;9.35;99.50
70900;BME280;67902;52.154;5.430;2023-04-01T05:38:42;99422.59;;;9.33;99.92
70900;BME280;67902;52.154;5.430;2023-04-01T05:41:09;99420.13;;;9.32;99.63
70900;BME280;67902;52.154;5.430;2023-04-01T05:43:37;99429.63;;;9.35;99.62
70900;BME280;67902;52.154;5.430;2023-04-01T05:46:04;99434.22;;;9.34;99.30
70900;BME280;67902;52.154;5.430;2023-04-01T05:48:32;99442.03;;;9.36;100.00
70900;BME280;67902;52.154;5.430;2023-04-01T05:50:59;99441.78;;;9.37;99.73
70900;BME280;67902;52.154;5.430;2023-04-01T05:53:25;99449.06;;;9.37;99.37
70900;BME280;67902;52.154;5.430;2023-04-01T05:55:52;99443.38;;;9.38;99.96
70900;BME280;67902;52.154;5.430;2023-04-01T05:58:18;99446.88;;;9.39;100.00
70900;BME280;67902;52.154;5.430;2023-04-01T06:00:44;99446.63;;;9.40;99.65
70900;BME280;67902;52.154;5.430;2023-04-01T06:03:13;99452.56;;;9.42;99.28
70900;BME280;67902;52.154;5.430;2023-04-01T06:05:41;99457.16;;;9.42;100.00
70900;BME280;67902;52.154;5.430;2023-04-01T06:08:13;99460.69;;;9.42;99.40
70900;BME280;67902;52.154;5.430;2023-04-01T06:13:30;99465.78;;;9.44;100.00
70900;BME280;67902;52.154;5.430;2023-04-01T06:16:07;99469.06;;;9.46;99.36
70900;BME280;67902;52.154;5.430;2023-04-01T06:18:44;99473.66;;;9.45;99.84
70900;BME280;67902;52.154;5.430;2023-04-01T06:24:14;99484.16;;;9.47;99.73
70900;BME280;67902;52.154;5.430;2023-04-01T06:26:59;99479.88;;;9.51;99.85
70900;BME280;67902;52.154;5.430;2023-04-01T06:29:40;99492.56;;;9.50;99.63
70900;BME280;67902;52.154;5.430;2023-04-01T06:32:40;99490.38;;;9.52;99.97
70900;BME280;67902;52.154;5.430;2023-04-01T06:35:19;99503.91;;;9.52;99.76
70900;BME280;67902;52.154;5.430;2023-04-01T06:43:25;99506.88;;;9.56;99.24
70900;BME280;67902;52.154;5.430;2023-04-01T06:51:52;99530.66;;;9.64;99.83
70900;BME280;67902;52.154;5.430;2023-04-01T06:54:39;99537.97;;;9.68;99.50
70900;BME280;67902;52.154;5.430;2023-04-01T06:59:47;99540.91;;;9.77;99.73
70900;BME280;67902;52.154;5.430;2023-04-01T07:02:23;99543.91;;;9.75;99.59
70900;BME280;67902;52.154;5.430;2023-04-01T07:04:53;99547.69;;;9.74;99.63
70900;BME280;67902;52.154;5.430;2023-04-01T07:10:05;99556.06;;;9.73;99.52
70900;BME280;67902;52.154;5.430;2023-04-01T07:12:48;99563.38;;;9.77;99.39
70900;BME280;67902;52.154;5.430;2023-04-01T07:15:19;99560.94;;;9.86;98.95
70900;BME280;67902;52.154;5.430;2023-04-01T07:17:53;99568.78;;;9.87;98.81
70900;BME280;67902;52.154;5.430;2023-04-01T07:20:28;99571.22;;;9.89;99.23
70900;BME280;67902;52.154;5.430;2023-04-01T07:23:02;99580.41;;;9.93;98.66
70900;BME280;67902;52.154;5.430;2023-04-01T07:25:34;99581.22;;;9.99;99.04
70900;BME280;67902;52.154;5.430;2023-04-01T07:28:13;99584.75;;;10.04;99.07
70900;BME280;67902;52.154;5.430;2023-04-01T07:31:10;99591.22;;;10.03;98.51
70900;BME280;67902;52.154;5.430;2023-04-01T07:34:01;99598.28;;;9.99;98.68
70900;BME280;67902;52.154;5.430;2023-04-01T07:36:39;99602.31;;;10.02;98.36
70900;BME280;67902;52.154;5.430;2023-04-01T07:47:29;99621.25;;;10.02;98.09
70900;BME280;67902;52.154;5.430;2023-04-01T07:50:11;99623.66;;;10.03;98.35
70900;BME280;67902;52.154;5.430;2023-04-01T08:00:51;99647.47;;;10.06;98.04
70900;BME280;67902;52.154;5.430;2023-04-01T08:17:03;99659.94;;;10.22;98.10
70900;BME280;67902;52.154;5.430;2023-04-01T08:22:33;99675.13;;;10.23;98.16
70900;BME280;67902;52.154;5.430;2023-04-01T08:25:04;99679.44;;;10.19;98.28
70900;BME280;67902;52.154;5.430;2023-04-01T08:27:40;99682.66;;;10.16;97.79
70900;BME280;67902;52.154;5.430;2023-04-01T08:30:25;99685.38;;;10.16;98.00
70900;BME280;67902;52.154;5.430;2023-04-01T08:35:34;99697.81;;;10.17;98.12
70900;BME280;67902;52.154;5.430;2023-04-01T08:38:13;99701.88;;;10.15;98.12
70900;BME280;67902;52.154;5.430;2023-04-01T08:40:57;99706.22;;;10.16;97.93
70900;BME280;67902;52.154;5.430;2023-04-01T08:46:51;99711.34;;;10.22;97.97
70900;BME280;67902;52.154;5.430;2023-04-01T08:49:32;99718.69;;;10.27;97.70
70900;BME280;67902;52.154;5.430;2023-04-01T08:52:20;99725.72;;;10.33;97.83
70900;BME280;67902;52.154;5.430;2023-04-01T08:57:56;99727.59;;;10.42;97.74
70900;BME280;67902;52.154;5.430;2023-04-01T09:00:32;99735.72;;;10.47;97.22
70900;BME280;67902;52.154;5.430;2023-04-01T09:03:22;99737.34;;;10.48;97.53
70900;BME280;67902;52.154;5.430;2023-04-01T09:09:23;99745.47;;;10.54;97.62
70900;BME280;67902;52.154;5.430;2023-04-01T09:25:33;99764.97;;;10.86;96.84
70900;BME280;67902;52.154;5.430;2023-04-01T09:36:43;99774.69;;;11.07;96.38
70900;BME280;67902;52.154;5.430;2023-04-01T09:39:34;99775.72;;;11.26;96.51
70900;BME280;67902;52.154;5.430;2023-04-01T09:45:33;99788.94;;;11.73;95.83
70900;BME280;67902;52.154;5.430;2023-04-01T10:09:25;99803.56;;;14.04;90.74
70900;BME280;67902;52.154;5.430;2023-04-01T10:28:30;99826.94;;;12.71;88.99
70900;BME280;67902;52.154;5.430;2023-04-01T10:46:07;99843.28;;;12.12;91.12
70900;BME280;67902;52.154;5.430;2023-04-01T10:54:44;99845.94;;;13.05;90.13
70900;BME280;67902;52.154;5.430;2023-04-01T11:00:49;99853.34;;;13.33;88.61
70900;BME280;67902;52.154;5.430;2023-04-01T11:03:46;99863.84;;;13.16;88.21
70900;BME280;67902;52.154;5.430;2023-04-01T11:06:50;99855.13;;;12.75;88.61
70900;BME280;67902;52.154;5.430;2023-04-01T11:15:31;99871.03;;;11.89;91.62
70900;BME280;67902;52.154;5.430;2023-04-01T11:19:04;99874.84;;;11.93;92.03
70900;BME280;67902;52.154;5.430;2023-04-01T11:21:55;99877.56;;;11.93;92.12
70900;BME280;67902;52.154;5.430;2023-04-01T11:35:25;99900.31;;;11.97;90.98
70900;BME280;67902;52.154;5.430;2023-04-01T11:41:24;99915.53;;;11.93;90.08
70900;BME280;67902;52.154;5.430;2023-04-01T11:44:15;99910.91;;;11.93;90.50
70900;BME280;67902;52.154;5.430;2023-04-01T11:50:42;99920.44;;;11.60;90.94
70900;BME280;67902;52.154;5.430;2023-04-01T12:20:54;99961.06;;;12.11;91.63
70900;BME280;67902;52.154;5.430;2023-04-01T12:26:31;99967.63;;;11.90;92.31
70900;BME280;67902;52.154;5.430;2023-04-01T12:45:49;99988.66;;;12.38;91.15
70900;BME280;67902;52.154;5.430;2023-04-01T12:48:39;99988.06;;;12.56;91.48
70900;BME280;67902;52.154;5.430;2023-04-01T12:51:29;99992.63;;;12.71;91.10
70900;BME280;67902;52.154;5.430;2023-04-01T13:02:34;100003.34;;;13.01;90.21
70900;BME280;67902;52.154;5.430;2023-04-01T13:07:59;100010.19;;;12.89;90.30
70900;BME280;67902;52.154;5.430;2023-04-01T13:13:41;100021.78;;;12.45;90.38
70900;BME280;67902;52.154;5.430;2023-04-01T13:16:33;100031.59;;;12.26;91.17
70900;BME280;67902;52.154;5.430;2023-04-01T13:19:11;100025.09;;;12.17;90.99
70900;BME280;67902;52.154;5.430;2023-04-01T13:21:55;100036.78;;;12.07;91.65
70900;BME280;67902;52.154;5.430;2023-04-01T13:24:54;100047.91;;;12.01;92.06
70900;BME280;67902;52.154;5.430;2023-04-01T13:27:38;100048.47;;;11.78;92.12
70900;BME280;67902;52.154;5.430;2023-04-01T13:30:26;100050.59;;;11.60;92.79
70900;BME280;67902;52.154;5.430;2023-04-01T13:33:10;100057.09;;;11.59;93.56
70900;BME280;67902;52.154;5.430;2023-04-01T13:36:11;100066.31;;;11.63;93.31
70900;BME280;67902;52.154;5.430;2023-04-01T13:39:24;100060.38;;;11.67;93.75
70900;BME280;67902;52.154;5.430;2023-04-01T13:42:08;100060.91;;;11.69;93.65
70900;BME280;67902;52.154;5.430;2023-04-01T13:44:49;100066.88;;;11.71;93.30
70900;BME280;67902;52.154;5.430;2023-04-01T13:47:24;100065.50;;;11.58;93.44
70900;BME280;67902;52.154;5.430;2023-04-01T14:09:51;100101.69;;;11.12;94.34
70900;BME280;67902;52.154;5.430;2023-04-01T14:12:42;100109.53;;;11.03;94.56
70900;BME280;67902;52.154;5.430;2023-04-01T14:16:20;100111.66;;;10.96;95.03
70900;BME280;67902;52.154;5.430;2023-04-01T14:19:00;100113.84;;;10.94;94.48
70900;BME280;67902;52.154;5.430;2023-04-01T14:24:08;100131.13;;;10.88;95.10
70900;BME280;67902;52.154;5.430;2023-04-01T14:35:19;100148.91;;;10.69;94.45
70900;BME280;67902;52.154;5.430;2023-04-01T14:51:48;100178.66;;;10.64;94.84
70900;BME280;67902;52.154;5.430;2023-04-01T14:54:19;100185.69;;;10.65;94.82
70900;BME280;67902;52.154;5.430;2023-04-01T14:57:09;100191.38;;;10.63;95.02
70900;BME280;67902;52.154;5.430;2023-04-01T14:59:40;100190.00;;;10.61;95.06
70900;BME280;67902;52.154;5.430;2023-04-01T15:04:57;100199.25;;;10.70;95.37
70900;BME280;67902;52.154;5.430;2023-04-01T15:16:25;100228.03;;;10.81;95.10
70900;BME280;67902;52.154;5.430;2023-04-01T15:24:43;100237.28;;;10.85;94.82
70900;BME280;67902;52.154;5.430;2023-04-01T15:27:25;100252.47;;;10.86;94.61
70900;BME280;67902;52.154;5.430;2023-04-01T15:35:00;100252.38;;;10.76;93.80
70900;BME280;67902;52.154;5.430;2023-04-01T15:37:53;100260.69;;;10.64;94.18
70900;BME280;67902;52.154;5.430;2023-04-01T15:40:37;100270.72;;;10.64;94.50
70900;BME280;67902;52.154;5.430;2023-04-01T15:45:49;100290.22;;;10.66;94.47
70900;BME280;67902;52.154;5.430;2023-04-01T15:48:31;100287.19;;;10.62;94.53
70900;BME280;67902;52.154;5.430;2023-04-01T15:54:06;100297.28;;;10.40;94.40
70900;BME280;67902;52.154;5.430;2023-04-01T16:00:02;100311.25;;;10.27;94.44
70900;BME280;67902;52.154;5.430;2023-04-01T16:02:44;100312.50;;;10.19;95.06
70900;BME280;67902;52.154;5.430;2023-04-01T16:05:51;100324.63;;;10.17;95.15
70900;BME280;67902;52.154;5.430;2023-04-01T16:11:03;100331.84;;;10.11;94.48
70900;BME280;67902;52.154;5.430;2023-04-01T16:13:43;100337.75;;;10.08;95.11
70900;BME280;67902;52.154;5.430;2023-04-01T16:18:48;100356.09;;;10.01;94.63
70900;BME280;67902;52.154;5.430;2023-04-01T16:21:36;100351.41;;;9.97;95.20
70900;BME280;67902;52.154;5.430;2023-04-01T16:24:23;100357.84;;;9.90;95.28
70900;BME280;67902;52.154;5.430;2023-04-01T16:27:08;100374.81;;;9.86;95.13
70900;BME280;67902;52.154;5.430;2023-04-01T16:32:17;100380.44;;;9.79;95.60
70900;BME280;67902;52.154;5.430;2023-04-01T16:35:03;100390.34;;;9.74;95.50
70900;BME280;67902;52.154;5.430;2023-04-01T16:40:49;100399.69;;;9.66;95.61
70900;BME280;67902;52.154;5.430;2023-04-01T16:43:25;100401.00;;;9.64;95.19
70900;BME280;67902;52.154;5.430;2023-04-01T16:46:12;100407.25;;;9.64;95.88
70900;BME280;67902;52.154;5.430;2023-04-01T16:51:46;100421.66;;;9.53;95.27
70900;BME280;67902;52.154;5.430;2023-04-01T16:54:28;100437.56;;;9.50;95.64
70900;BME280;67902;52.154;5.430;2023-04-01T16:59:38;100440.66;;;9.42;94.92
70900;BME280;67902;52.154;5.430;2023-04-01T17:04:42;100451.91;;;9.33;95.40
70900;BME280;67902;52.154;5.430;2023-04-01T17:10:22;100466.72;;;9.31;95.44
70900;BME280;67902;52.154;5.430;2023-04-01T17:16:01;100478.25;;;9.26;95.12
70900;BME280;67902;52.154;5.430;2023-04-01T17:24:25;100507.66;;;9.23;94.93
70900;BME280;67902;52.154;5.430;2023-04-01T17:35:35;100528.34;;;9.17;95.35
70900;BME280;67902;52.154;5.430;2023-04-01T17:43:33;100543.63;;;9.12;95.12
70900;BME280;67902;52.154;5.430;2023-04-01T17:46:27;100556.22;;;9.06;94.99
70900;BME280;67902;52.154;5.430;2023-04-01T17:52:11;100569.59;;;9.01;95.59
70900;BME280;67902;52.154;5.430;2023-04-01T18:00:46;100581.03;;;8.92;95.08
70900;BME280;67902;52.154;5.430;2023-04-01T18:09:45;100612.63;;;8.91;94.92
70900;BME280;67902;52.154;5.430;2023-04-01T18:15:19;100619.31;;;8.89;94.58
70900;BME280;67902;52.154;5.430;2023-04-01T18:18:19;100628.16;;;8.84;95.02
70900;BME280;67902;52.154;5.430;2023-04-01T18:21:36;100646.69;;;8.81;94.60
70900;BME280;67902;52.154;5.430;2023-04-01T18:27:03;100657.38;;;8.76;94.49
70900;BME280;67902;52.154;5.430;2023-04-01T18:29:42;100664.06;;;8.73;93.98
70900;BME280;67902;52.154;5.430;2023-04-01T18:37:29;100681.53;;;8.70;94.80
70900;BME280;67902;52.154;5.430;2023-04-01T18:40:10;100684.50;;;8.69;94.75
70900;BME280;67902;52.154;5.430;2023-04-01T18:45:32;100697.41;;;8.67;94.09
70900;BME280;67902;52.154;5.430;2023-04-01T18:51:13;100709.13;;;8.61;94.63
70900;BME280;67902;52.154;5.430;2023-04-01T18:53:52;100722.84;;;8.59;94.18
70900;BME280;67902;52.154;5.430;2023-04-01T18:56:38;100728.50;;;8.58;95.05
70900;BME280;67902;52.154;5.430;2023-04-01T19:04:43;100748.69;;;8.55;94.60
70900;BME280;67902;52.154;5.430;2023-04-01T19:10:45;100758.06;;;8.53;93.56
70900;BME280;67902;52.154;5.430;2023-04-01T19:13:48;100763.47;;;8.53;94.04
70900;BME280;67902;52.154;5.430;2023-04-01T19:18:51;100774.09;;;8.48;94.31
70900;BME280;67902;52.154;5.430;2023-04-01T19:21:36;100786.44;;;8.44;93.87
70900;BME280;67902;52.154;5.430;2023-04-01T19:24:21;100786.06;;;8.40;93.76
70900;BME280;67902;52.154;5.430;2023-04-01T19:27:14;100796.28;;;8.38;93.60
70900;BME280;67902;52.154;5.430;2023-04-01T19:32:57;100817.03;;;8.38;93.50
70900;BME280;67902;52.154;5.430;2023-04-01T19:35:42;100820.19;;;8.35;94.02
70900;BME280;67902;52.154;5.430;2023-04-01T19:41:09;100826.50;;;8.29;94.41
70900;BME280;67902;52.154;5.430;2023-04-01T19:43:47;100839.59;;;8.25;93.56
70900;BME280;67902;52.154;5.430;2023-04-01T19:46:30;100842.75;;;8.22;93.67
70900;BME280;67902;52.154;5.430;2023-04-01T19:49:07;100843.81;;;8.21;93.95
70900;BME280;67902;52.154;5.430;2023-04-01T19:54:45;100856.91;;;8.17;94.10
70900;BME280;67902;52.154;5.430;2023-04-01T19:57:34;100870.72;;;8.09;93.62
70900;BME280;67902;52.154;5.430;2023-04-01T20:00:14;100876.41;;;8.01;93.72
70900;BME280;67902;52.154;5.430;2023-04-01T20:14:14;100913.06;;;7.91;94.64
70900;BME280;67902;52.154;5.430;2023-04-01T20:16:50;100905.41;;;7.88;93.74
70900;BME280;67902;52.154;5.430;2023-04-01T20:19:43;100919.34;;;7.85;94.67
70900;BME280;67902;52.154;5.430;2023-04-01T20:24:59;100927.50;;;7.78;94.04
70900;BME280;67902;52.154;5.430;2023-04-01T20:27:32;100938.28;;;7.78;94.48
70900;BME280;67902;52.154;5.430;2023-04-01T20:33:05;100944.78;;;7.71;93.93
70900;BME280;67902;52.154;5.430;2023-04-01T20:35:40;100958.47;;;7.69;93.45
70900;BME280;67902;52.154;5.430;2023-04-01T20:44:03;100970.75;;;7.65;93.96
70900;BME280;67902;52.154;5.430;2023-04-01T20:46:42;100978.25;;;7.63;93.51
70900;BME280;67902;52.154;5.430;2023-04-01T20:52:17;100985.50;;;7.63;93.38
70900;BME280;67902;52.154;5.430;2023-04-01T20:55:00;100998.38;;;7.61;93.49
70900;BME280;67902;52.154;5.430;2023-04-01T20:57:38;101009.94;;;7.61;93.71
70900;BME280;67902;52.154;5.430;2023-04-01T21:03:16;101016.63;;;7.58;93.89
70900;BME280;67902;52.154;5.430;2023-04-01T21:14:24;101034.16;;;7.43;93.68
70900;BME280;67902;52.154;5.430;2023-04-01T21:36:52;101091.72;;;7.17;94.93
70900;BME280;67902;52.154;5.430;2023-04-01T21:56:17;101132.41;;;6.96;95.38
70900;BME280;67902;52.154;5.430;2023-04-01T21:59:08;101131.78;;;6.94;95.32
70900;BME280;67902;52.154;5.430;2023-04-01T22:05:04;101140.50;;;6.89;95.38
70900;BME280;67902;52.154;5.430;2023-04-01T22:07:43;101148.34;;;6.91;95.35
70900;BME280;67902;52.154;5.430;2023-04-01T22:10:30;101154.38;;;6.86;95.27
70900;BME280;67902;52.154;5.430;2023-04-01T22:13:16;101162.47;;;6.86;94.84